Nearby METAR Reports

 

KSJC - San Jose, California, USA
Distance from station: NE 14km
Actualización: 25/05/2020 11:53
Despejado
Despejado
 Viento del S
Viento: S 7 km/h
Temperatura: 18°C
Rocío: 7°C
Humedad: 49%
Barómetro: 1011.9 hPa
Clouds: Despejado
Visibility: 16 km
2020/05/25 09:53 KSJC 250953Z AUTO 18004KT 10SM CLR 18/07 A2988 RMK AO2 SLP117 T01780072
KNUQ - Moffett Nas/Mtn, California, USA
Distance from station: N 14km
Actualización: 25/05/2020 12:15
Despejado
Despejado
 Viento del calm
Viento: Calma
Temperatura: 18°C
Rocío: 10°C
Humedad: 60%
Barómetro: 1012.2 hPa
Clouds: Despejado
Visibility: 16 km
2020/05/25 10:15 KNUQ 251015Z AUTO 00000KT 10SM CLR 18/10 A2989 RMK AO2
 
KPAO - Palo Alto, California, USA
Distance from station: NNO 23km
Actualización: 25/05/2020 00:47
NOT Current
Despejado
Despejado
 Viento del NNO
Viento: NNO 22 km/h
Temperatura: 27°C
Rocío: 12°C
Humedad: 39%
Barómetro: 1012.9 hPa
Clouds: Despejado
Visibility: 16 km
2020/05/24 22:47 KPAO 242247Z 33012KT 10SM SKC 27/12 A2991 RMK LAST
KRHV - San Jose/Reid, California, USA
Distance from station: ENE 19km
Actualización: 25/05/2020 06:47
NOT Current
Few Clouds
Few Clouds
 Viento del calm
Viento: Calma
Temperatura: 23°C
Rocío: 6°C
Humedad: 33%
Barómetro: 1013.5 hPa
Clouds: Few Clouds
Visibility: 16 km
Cloud details: Few Clouds 3048 m
2020/05/25 04:47 KRHV 250447Z 00000KT 10SM FEW100 23/06 A2993 RMK LAST
 
KOAK - Oakland, California, USA
Distance from station: NNO 50km
Actualización: 25/05/2020 11:53
Despejado
Despejado
 Viento del NNO
Viento: NNO 7 km/h
Temperatura: 17°C
Rocío: 13°C
Humedad: 77%
Barómetro: 1012.2 hPa
Clouds: Despejado
Visibility: 16 km
2020/05/25 09:53 KOAK 250953Z 33004KT 10SM CLR 17/13 A2989 RMK AO2 SLP120 T01670128
KSQL - San Carlos Airpo, California, USA
Distance from station: NO 34km
Actualización: 25/05/2020 12:20
Despejado
Despejado
 Viento del NO
Viento: NO 7 km/h
Temperatura: 17°C
Rocío: 10°C
Humedad: 64%
Barómetro: 1012.2 hPa
Clouds: Despejado
Visibility: 16 km
2020/05/25 10:20 KSQL 251020Z AUTO 31004KT 10SM CLR 17/10 A2989 RMK AO2
 
KSFO - San Francisco, California, USA
Distance from station: NO 49km
Actualización: 25/05/2020 11:56
Few Clouds
Few Clouds
 Viento del O
Viento: O 15 km/h
Temperatura: 14°C
Rocío: 9°C
Humedad: 72%
Barómetro: 1011.9 hPa
Clouds: Few Clouds
Visibility: 16 km
Cloud details: Few Clouds 6096 m
2020/05/25 09:56 KSFO 250956Z 27008KT 10SM FEW200 14/09 A2988 RMK AO2 SLP119 T01440089
KE16 - San Martin, California, USA
Distance from station: ESE 43km
Actualización: 25/05/2020 12:05
Despejado
Despejado
 Viento del calm
Viento: Calma
Temperatura: 14°C
Rocío: 9°C
Humedad: 72%
Barómetro: 1013.2 hPa
Clouds: Despejado
Visibility: 16 km
2020/05/25 10:05 KE16 251005Z AUTO 00000KT 10SM CLR 14/09 A2992 RMK AO2
 
KWVI - Watsonville, California, USA
Distance from station: SSE 44km
Actualización: 25/05/2020 11:53
Despejado
Despejado
 Viento del N
Viento: N 6 km/h
Temperatura: 14°C
Rocío: 10°C
Humedad: 77%
Barómetro: 1012.2 hPa
Clouds: Despejado
Visibility: 16 km
2020/05/25 09:53 KWVI 250953Z AUTO 36003KT 10SM CLR 14/10 A2989 RMK AO2 SLP121 T01390100
KHAF - Half Moon Bay, California, USA
Distance from station: ONO 50km
Actualización: 25/05/2020 12:15
Few Clouds
Few Clouds
 Viento del calm
Viento: Calma
Temperatura: 9°C
Rocío: 8°C
Humedad: 94%
Barómetro: 1012.9 hPa
Clouds: Few Clouds
Visibility: 11 km
Cloud details: Few Clouds 91 m
2020/05/25 10:15 KHAF 251015Z AUTO 00000KT 7SM FEW003 09/08 A2991 RMK AO2
 
KHWD - Hayward, California, USA
Distance from station: N 44km
Actualización: 25/05/2020 11:54
Despejado
Despejado
 Viento del NE
Viento: NE 7 km/h
Temperatura: 17°C
Rocío: 6°C
Humedad: 49%
Barómetro: 1011.9 hPa
Clouds: Despejado
Visibility: 16 km
2020/05/25 09:54 KHWD 250954Z 04004KT 10SM CLR 17/06 A2988 RMK AO2 SLP127 T01720061
KLVK - Livermore, California, USA
Distance from station: NNE 51km
Actualización: 25/05/2020 11:53
Despejado
Despejado
 Viento del calm
Viento: Calma
Temperatura: 17°C
Rocío: 5°C
Humedad: 45%
Barómetro: 1012.2 hPa
Clouds: Despejado
Visibility: 16 km
2020/05/25 09:53 KLVK 250953Z AUTO 00000KT 10SM CLR 17/05 A2989 RMK AO2 SLP116 T01670050